createdAt,value
2018-03-04T00:01:43.042Z,29.50
2018-03-04T00:04:12.079Z,29.70
2018-03-04T00:06:40.408Z,29.60
2018-03-04T00:09:08.711Z,29.70
2018-03-04T00:11:37.010Z,29.70
2018-03-04T00:14:05.335Z,29.70
2018-03-04T00:16:33.627Z,29.70
2018-03-04T00:19:02.669Z,29.60
2018-03-04T00:21:30.971Z,29.60
2018-03-04T00:23:59.249Z,29.70
2018-03-04T00:26:27.608Z,29.70
2018-03-04T00:28:55.932Z,29.70
2018-03-04T00:31:24.970Z,29.80
2018-03-04T00:33:53.269Z,29.70
2018-03-04T00:36:21.539Z,29.70
2018-03-04T00:38:49.879Z,29.70
2018-03-04T00:41:18.161Z,29.70
2018-03-04T00:43:46.449Z,29.70
2018-03-04T00:46:14.737Z,29.70
2018-03-04T00:48:43.021Z,29.70
2018-03-04T00:51:11.306Z,29.70
2018-03-04T00:53:39.583Z,29.80
2018-03-04T00:56:07.846Z,29.80
2018-03-04T00:58:36.174Z,29.80
2018-03-04T01:01:04.439Z,29.80
2018-03-04T01:03:32.718Z,29.80
2018-03-04T01:06:01.007Z,29.80
2018-03-04T01:08:29.285Z,29.80
2018-03-04T01:10:57.608Z,30.30
2018-03-04T01:13:25.919Z,29.90
2018-03-04T01:15:54.197Z,30.00
2018-03-04T01:18:22.518Z,30.00
2018-03-04T01:20:50.813Z,30.00
2018-03-04T01:23:19.122Z,30.00
2018-03-04T01:25:47.419Z,30.00
2018-03-04T01:28:15.714Z,30.00
2018-03-04T01:30:45.042Z,30.10
2018-03-04T01:33:14.063Z,30.00
2018-03-04T01:35:42.329Z,30.00
2018-03-04T01:38:10.628Z,30.10
2018-03-04T01:40:38.910Z,30.20
2018-03-04T01:43:07.257Z,30.10
2018-03-04T01:45:36.286Z,30.30
2018-03-04T01:48:04.553Z,30.30
2018-03-04T01:50:32.841Z,30.30
2018-03-04T01:53:01.120Z,30.30
2018-03-04T01:55:29.431Z,30.30
2018-03-04T01:57:58.478Z,30.30
2018-03-04T02:00:26.772Z,30.30
2018-03-04T02:02:55.082Z,30.40
2018-03-04T02:05:23.367Z,30.40
2018-03-04T02:07:52.459Z,30.50
2018-03-04T02:10:20.726Z,30.40
2018-03-04T02:12:49.020Z,30.60
2018-03-04T02:15:17.311Z,30.60
2018-03-04T02:17:45.594Z,30.60
2018-03-04T02:20:13.929Z,30.80
2018-03-04T02:22:42.210Z,30.80
2018-03-04T02:25:10.499Z,30.70
2018-03-04T02:27:39.229Z,30.70
2018-03-04T02:30:07.476Z,30.80
2018-03-04T02:32:36.554Z,31.00
2018-03-04T02:35:04.824Z,31.00
2018-03-04T02:37:33.106Z,31.00
2018-03-04T02:40:01.425Z,31.10
2018-03-04T02:42:29.697Z,31.00
2018-03-04T02:44:58.745Z,31.00
2018-03-04T02:47:27.069Z,31.10
2018-03-04T02:49:56.124Z,31.10
2018-03-04T02:52:26.275Z,31.10
2018-03-04T02:54:55.297Z,31.10
2018-03-04T02:57:23.574Z,31.10
2018-03-04T02:59:51.891Z,31.10
2018-03-04T03:02:20.161Z,31.10
2018-03-04T03:04:48.473Z,31.10
2018-03-04T03:07:17.504Z,31.30
2018-03-04T03:09:45.772Z,31.20
2018-03-04T03:12:14.057Z,31.20
2018-03-04T03:14:42.333Z,31.30
2018-03-04T03:17:10.666Z,31.30
2018-03-04T03:19:38.945Z,31.30
2018-03-04T03:22:07.232Z,31.30
2018-03-04T03:24:35.526Z,31.40
2018-03-04T03:27:04.570Z,31.30
2018-03-04T03:29:32.885Z,31.30
2018-03-04T03:32:01.175Z,31.40
2018-03-04T03:34:29.470Z,31.40
2018-03-04T03:36:57.776Z,31.50
2018-03-04T03:39:26.043Z,31.50
2018-03-04T03:41:54.361Z,31.60
2018-03-04T03:44:22.629Z,31.60
2018-03-04T03:46:50.905Z,31.80
2018-03-04T03:49:35.993Z,31.80
2018-03-04T03:52:04.273Z,31.80
2018-03-04T03:54:32.547Z,31.80
2018-03-04T03:57:00.874Z,31.80
2018-03-04T03:59:29.149Z,31.90
2018-03-04T04:01:57.430Z,31.80
2018-03-04T04:04:25.739Z,31.80
2018-03-04T04:06:54.007Z,31.80
2018-03-04T04:09:22.312Z,31.80
2018-03-04T04:11:50.595Z,31.80
2018-03-04T04:14:18.914Z,31.80
2018-03-04T04:16:47.207Z,31.90
2018-03-04T04:19:15.477Z,32.00
2018-03-04T04:21:43.782Z,32.00
2018-03-04T04:24:12.063Z,32.00
2018-03-04T04:26:41.296Z,32.20
2018-03-04T04:29:09.562Z,32.20
2018-03-04T04:31:37.865Z,32.30
2018-03-04T04:34:06.182Z,32.20
2018-03-04T04:36:34.462Z,32.20
2018-03-04T04:39:02.772Z,32.40
2018-03-04T04:41:31.064Z,32.40
2018-03-04T04:43:59.378Z,32.50
2018-03-04T04:46:27.673Z,32.50
2018-03-04T04:48:56.704Z,32.60
2018-03-04T04:51:25.034Z,32.60
2018-03-04T04:53:53.359Z,32.60
2018-03-04T04:56:21.581Z,32.60
2018-03-04T04:58:49.894Z,32.60
2018-03-04T05:01:18.182Z,32.60
2018-03-04T05:03:46.446Z,32.60
2018-03-04T05:06:14.747Z,32.60
2018-03-04T05:08:43.048Z,32.60
2018-03-04T05:11:11.390Z,32.60
2018-03-04T05:13:39.653Z,32.60
2018-03-04T05:16:07.931Z,32.60
2018-03-04T05:18:36.237Z,32.60
2018-03-04T05:21:04.534Z,32.60
2018-03-04T05:23:32.838Z,32.60
2018-03-04T05:26:01.111Z,32.60
2018-03-04T05:28:29.388Z,32.60
2018-03-04T05:30:57.674Z,32.60
2018-03-04T05:33:25.946Z,32.60
2018-03-04T05:35:54.274Z,32.60
2018-03-04T05:38:22.556Z,32.60
2018-03-04T05:40:50.839Z,32.60
2018-03-04T05:43:19.145Z,32.60
2018-03-04T05:45:47.422Z,32.60
2018-03-04T05:48:16.499Z,32.60
2018-03-04T05:50:44.791Z,32.60
2018-03-04T05:53:13.856Z,32.60
2018-03-04T05:55:42.170Z,32.60
2018-03-04T05:58:11.223Z,33.30
2018-03-04T06:00:39.539Z,32.60
2018-03-04T06:03:09.494Z,32.70
2018-03-04T06:05:38.652Z,32.70
2018-03-04T06:08:07.759Z,32.80
2018-03-04T06:10:36.799Z,32.80
2018-03-04T06:13:05.109Z,32.80
2018-03-04T06:15:33.408Z,32.80
2018-03-04T06:18:02.462Z,33.00
2018-03-04T06:20:30.806Z,32.90
2018-03-04T06:22:59.082Z,33.00
2018-03-04T06:25:27.358Z,33.00
2018-03-04T06:27:55.700Z,33.10
2018-03-04T06:30:23.975Z,33.10
2018-03-04T06:32:52.239Z,33.10
2018-03-04T06:35:20.535Z,33.20
2018-03-04T06:37:48.897Z,33.10
2018-03-04T06:40:17.221Z,33.40
2018-03-04T06:42:46.247Z,33.20
2018-03-04T06:45:14.530Z,33.20
2018-03-04T06:47:42.837Z,33.20
2018-03-04T06:50:11.103Z,33.20
2018-03-04T06:52:39.422Z,33.30
2018-03-04T06:55:08.475Z,33.30
2018-03-04T06:57:36.767Z,33.30
2018-03-04T07:00:05.073Z,33.40
2018-03-04T07:02:33.379Z,33.30
2018-03-04T07:05:01.697Z,33.40
2018-03-04T07:07:30.000Z,33.40
2018-03-04T07:09:59.049Z,33.50
2018-03-04T07:12:27.392Z,33.40
2018-03-04T07:14:56.355Z,33.40
2018-03-04T07:17:24.739Z,33.50
2018-03-04T07:19:53.445Z,33.50
2018-03-04T07:22:22.595Z,33.50
2018-03-04T07:24:50.898Z,33.60
2018-03-04T07:27:19.215Z,33.60
2018-03-04T07:29:47.514Z,33.70
2018-03-04T07:32:16.222Z,33.70
2018-03-04T07:34:44.534Z,33.60
2018-03-04T07:37:13.639Z,33.70
2018-03-04T07:39:42.715Z,33.70
2018-03-04T07:42:10.982Z,33.70
2018-03-04T07:44:39.591Z,33.80
2018-03-04T07:47:08.626Z,33.80
2018-03-04T07:49:36.941Z,33.80
2018-03-04T07:52:05.251Z,33.70
2018-03-04T07:54:34.391Z,33.80
2018-03-04T07:57:04.025Z,33.80
2018-03-04T07:59:32.357Z,33.90
2018-03-04T08:02:01.147Z,33.80
2018-03-04T08:04:29.709Z,33.80
2018-03-04T08:06:58.835Z,33.70
2018-03-04T08:09:27.819Z,33.70
2018-03-04T08:11:56.155Z,33.60
2018-03-04T08:14:24.494Z,33.50
2018-03-04T08:16:52.928Z,33.40
2018-03-04T08:19:22.116Z,33.60
2018-03-04T08:21:50.580Z,33.70
2018-03-04T08:24:30.766Z,33.60
2018-03-04T08:27:10.726Z,33.70
2018-03-04T08:29:39.849Z,33.40
2018-03-04T08:32:08.146Z,33.30
2018-03-04T08:34:36.496Z,33.20
2018-03-04T08:37:04.892Z,33.30
2018-03-04T08:39:34.364Z,33.20
2018-03-04T08:42:03.422Z,33.20
2018-03-04T08:44:32.515Z,33.20
2018-03-04T08:47:01.606Z,33.20
2018-03-04T08:49:29.966Z,33.20
2018-03-04T08:51:58.279Z,33.20
2018-03-04T08:54:26.828Z,33.20
2018-03-04T08:56:55.160Z,33.20
2018-03-04T08:59:23.488Z,33.00
2018-03-04T09:01:51.889Z,32.90
2018-03-04T09:04:20.184Z,32.80
2018-03-04T09:06:53.653Z,33.00
2018-03-04T09:09:22.906Z,33.00
2018-03-04T09:11:51.254Z,33.00
2018-03-04T09:14:19.601Z,33.20
2018-03-04T09:16:47.879Z,33.00
2018-03-04T09:19:16.216Z,32.90
2018-03-04T09:21:45.604Z,32.90
2018-03-04T09:24:13.893Z,33.00
2018-03-04T09:26:43.006Z,32.90
2018-03-04T09:29:11.371Z,32.90
2018-03-04T09:31:39.792Z,33.00
2018-03-04T09:34:08.149Z,33.30
2018-03-04T09:36:36.459Z,32.90
2018-03-04T09:39:04.807Z,32.80
2018-03-04T09:41:33.082Z,32.80
2018-03-04T09:44:02.446Z,32.80
2018-03-04T09:46:30.740Z,32.60
2018-03-04T09:48:58.967Z,32.40
2018-03-04T09:51:27.299Z,32.40
2018-03-04T09:53:55.569Z,32.20
2018-03-04T09:56:23.967Z,32.20
2018-03-04T09:58:52.241Z,31.90
2018-03-04T10:01:20.517Z,32.10
2018-03-04T10:03:48.907Z,32.60
2018-03-04T10:06:18.041Z,31.80
2018-03-04T10:08:46.342Z,31.90
2018-03-04T10:11:14.646Z,31.70
2018-03-04T10:13:42.944Z,31.80
2018-03-04T10:16:12.011Z,31.50
2018-03-04T10:18:40.311Z,31.50
2018-03-04T10:21:09.367Z,31.30
2018-03-04T10:23:37.677Z,31.30
2018-03-04T10:26:05.960Z,31.10
2018-03-04T10:28:34.252Z,31.00
2018-03-04T10:31:03.321Z,30.60
2018-03-04T10:33:31.600Z,30.60
2018-03-04T10:35:59.937Z,30.50
2018-03-04T10:38:28.264Z,30.30
2018-03-04T10:40:56.570Z,30.30
2018-03-04T10:43:24.873Z,30.10
2018-03-04T10:45:53.288Z,30.10
2018-03-04T10:48:21.621Z,29.90
2018-03-04T10:50:49.912Z,29.80
2018-03-04T10:53:18.328Z,29.60
2018-03-04T10:55:46.713Z,29.70
2018-03-04T10:58:15.027Z,29.80
2018-03-04T11:00:47.353Z,29.80
2018-03-04T11:03:16.211Z,29.80
2018-03-04T11:05:44.539Z,29.60
2018-03-04T11:08:13.687Z,29.20
2018-03-04T11:10:42.075Z,29.20
2018-03-04T11:13:10.383Z,28.90
2018-03-04T11:15:38.748Z,28.80
2018-03-04T11:18:08.016Z,28.50
2018-03-04T11:20:36.445Z,28.50
2018-03-04T11:23:04.783Z,28.40
2018-03-04T11:25:33.077Z,28.20
2018-03-04T11:28:01.407Z,28.00
2018-03-04T11:30:29.816Z,28.00
2018-03-04T11:32:58.276Z,28.00
2018-03-04T11:35:28.283Z,28.00
2018-03-04T11:37:56.549Z,28.00
2018-03-04T11:40:24.874Z,27.80
2018-03-04T11:42:53.343Z,27.70
2018-03-04T11:45:21.651Z,27.60
2018-03-04T11:47:49.950Z,27.40
2018-03-04T11:50:18.248Z,27.30
2018-03-04T11:52:46.552Z,27.50
2018-03-04T11:55:14.871Z,27.50
2018-03-04T11:57:43.152Z,27.60
2018-03-04T12:00:12.247Z,27.40
2018-03-04T12:02:40.596Z,27.40
2018-03-04T12:05:09.013Z,27.40
2018-03-04T12:07:37.281Z,27.30
2018-03-04T12:10:05.607Z,27.50
2018-03-04T12:12:34.659Z,28.10
2018-03-04T12:15:02.935Z,28.10
2018-03-04T12:17:31.232Z,27.10
2018-03-04T12:19:59.547Z,26.40
2018-03-04T12:22:27.889Z,25.90
2018-03-04T12:25:01.917Z,25.10
2018-03-04T12:27:30.249Z,24.90
2018-03-04T12:29:58.546Z,24.30
2018-03-04T12:32:26.832Z,23.90
2018-03-04T12:34:55.159Z,23.70
2018-03-04T12:37:23.442Z,23.60
2018-03-04T12:39:51.798Z,23.20
2018-03-04T12:42:20.105Z,22.80
2018-03-04T12:44:48.438Z,22.80
2018-03-04T12:47:19.052Z,22.30
2018-03-04T12:49:47.592Z,22.40
2018-03-04T12:52:16.031Z,22.60
2018-03-04T12:54:45.012Z,21.80
2018-03-04T12:57:17.959Z,21.00
2018-03-04T12:59:46.546Z,21.00
2018-03-04T13:02:15.103Z,21.20
2018-03-04T13:04:44.167Z,20.60
2018-03-04T13:07:13.228Z,20.60
2018-03-04T13:09:41.641Z,20.10
2018-03-04T13:12:14.850Z,20.30
2018-03-04T13:14:43.994Z,20.00
2018-03-04T13:17:12.283Z,20.00
2018-03-04T13:19:40.562Z,20.10
2018-03-04T13:22:08.885Z,20.10
2018-03-04T13:24:37.238Z,20.10
2018-03-04T13:27:05.592Z,20.10
2018-03-04T13:29:33.944Z,19.80
2018-03-04T13:32:02.996Z,19.70
2018-03-04T13:34:31.353Z,19.70
2018-03-04T13:37:00.465Z,20.00
2018-03-04T13:39:28.796Z,19.70
2018-03-04T13:41:57.107Z,19.10
2018-03-04T13:44:25.416Z,18.50
2018-03-04T13:46:53.755Z,18.10
2018-03-04T13:49:25.513Z,18.00
2018-03-04T13:51:53.876Z,18.00
2018-03-04T13:54:22.155Z,18.50
2018-03-04T13:56:50.452Z,19.60
2018-03-04T13:59:18.885Z,20.10
2018-03-04T14:01:47.188Z,20.20
2018-03-04T14:04:15.501Z,20.00
2018-03-04T14:06:43.850Z,19.70
2018-03-04T14:09:12.179Z,20.10
2018-03-04T14:11:40.596Z,19.90
2018-03-04T14:14:09.731Z,19.60
2018-03-04T14:16:38.077Z,19.60
2018-03-04T14:19:07.185Z,19.50
2018-03-04T14:21:41.135Z,19.50
2018-03-04T14:24:09.491Z,19.00
2018-03-04T14:26:37.795Z,18.60
2018-03-04T14:29:06.096Z,18.50
2018-03-04T14:31:34.477Z,18.60
2018-03-04T14:34:02.770Z,18.80
2018-03-04T14:36:31.819Z,19.50
2018-03-04T14:39:00.129Z,19.50
2018-03-04T14:41:28.423Z,19.80
2018-03-04T14:43:57.541Z,21.10
2018-03-04T14:46:26.189Z,21.10
2018-03-04T14:48:54.493Z,21.40
2018-03-04T14:51:23.688Z,21.70
2018-03-04T14:53:53.421Z,22.00
2018-03-04T14:56:21.796Z,22.00
2018-03-04T14:58:50.158Z,22.20
2018-03-04T15:01:19.208Z,22.60
2018-03-04T15:03:48.399Z,22.50
2018-03-04T15:06:21.072Z,22.70
2018-03-04T15:08:49.392Z,22.90
2018-03-04T15:11:17.840Z,23.10
2018-03-04T15:13:46.169Z,23.20
2018-03-04T15:16:15.234Z,23.60
2018-03-04T15:18:43.623Z,23.50
2018-03-04T15:21:12.060Z,23.70
2018-03-04T15:23:40.499Z,23.70
2018-03-04T15:26:08.853Z,23.80
2018-03-04T15:28:37.170Z,23.90
2018-03-04T15:31:06.305Z,24.10
2018-03-04T15:33:34.642Z,24.10
2018-03-04T15:36:03.684Z,24.30
2018-03-04T15:38:32.048Z,24.20
2018-03-04T15:41:00.382Z,24.40
2018-03-04T15:43:28.702Z,24.40
2018-03-04T15:45:57.024Z,24.60
2018-03-04T15:48:27.297Z,24.60
2018-03-04T15:50:55.944Z,24.60
2018-03-04T15:53:24.212Z,24.80
2018-03-04T15:55:52.603Z,25.00
2018-03-04T15:58:20.988Z,25.20
2018-03-04T16:00:49.290Z,25.10
2018-03-04T16:03:18.395Z,25.20
2018-03-04T16:05:46.664Z,25.10
2018-03-04T16:08:14.985Z,25.20
2018-03-04T16:10:43.303Z,25.80
2018-03-04T16:13:12.401Z,25.50
2018-03-04T16:15:41.491Z,25.20
2018-03-04T16:18:10.146Z,25.50
2018-03-04T16:20:38.458Z,25.50
2018-03-04T16:23:07.542Z,25.90
2018-03-04T16:25:35.858Z,25.70
2018-03-04T16:28:05.022Z,25.90
2018-03-04T16:30:33.356Z,25.90
2018-03-04T16:33:01.647Z,26.00
2018-03-04T16:35:29.981Z,26.00
2018-03-04T16:37:58.285Z,25.90
2018-03-04T16:40:26.607Z,26.00
2018-03-04T16:42:54.997Z,26.10
2018-03-04T16:45:23.256Z,26.10
2018-03-04T16:47:58.794Z,26.20
2018-03-04T16:50:27.098Z,26.10
2018-03-04T16:52:55.386Z,26.20
2018-03-04T16:55:23.706Z,26.30
2018-03-04T16:57:52.029Z,26.20
2018-03-04T17:00:20.403Z,26.30
2018-03-04T17:02:48.696Z,26.40
2018-03-04T17:05:17.155Z,26.40
2018-03-04T17:07:45.453Z,26.50
2018-03-04T17:10:13.738Z,26.40
2018-03-04T17:12:42.074Z,26.40
2018-03-04T17:15:10.372Z,26.50
2018-03-04T17:17:38.639Z,26.40
2018-03-04T17:20:06.964Z,26.50
2018-03-04T17:22:36.053Z,26.40
2018-03-04T17:25:04.496Z,26.40
2018-03-04T17:27:32.780Z,26.40
2018-03-04T17:30:01.108Z,26.40
2018-03-04T17:32:29.566Z,26.50
2018-03-04T17:34:57.854Z,26.50
2018-03-04T17:37:26.262Z,26.50
2018-03-04T17:39:55.353Z,26.50
2018-03-04T17:42:23.738Z,26.50
2018-03-04T17:44:52.074Z,26.50
2018-03-04T17:47:21.162Z,26.60
2018-03-04T17:49:49.508Z,26.60
2018-03-04T17:52:17.818Z,26.60
2018-03-04T17:54:46.241Z,26.70
2018-03-04T17:57:16.256Z,26.70
2018-03-04T17:59:45.402Z,26.70
2018-03-04T18:02:13.766Z,26.70
2018-03-04T18:04:42.135Z,26.80
2018-03-04T18:07:10.477Z,26.70
2018-03-04T18:09:38.851Z,26.70
2018-03-04T18:12:07.360Z,26.80
2018-03-04T18:14:35.696Z,26.70
2018-03-04T18:17:03.988Z,26.70
2018-03-04T18:19:32.348Z,26.80
2018-03-04T18:22:00.675Z,26.70
2018-03-04T18:24:29.126Z,26.80
2018-03-04T18:26:57.494Z,26.70
2018-03-04T18:29:26.020Z,26.80
2018-03-04T18:31:54.438Z,26.80
2018-03-04T18:34:22.758Z,26.80
2018-03-04T18:36:51.074Z,26.80
2018-03-04T18:39:19.415Z,26.80
2018-03-04T18:41:48.796Z,27.00
2018-03-04T18:44:17.327Z,26.90
2018-03-04T18:46:45.946Z,26.90
2018-03-04T18:49:14.273Z,26.90
2018-03-04T18:51:43.386Z,26.90
2018-03-04T18:54:12.623Z,26.90
2018-03-04T18:56:41.487Z,26.90
2018-03-04T18:59:10.709Z,26.90
2018-03-04T19:01:40.032Z,27.00
2018-03-04T19:04:08.388Z,26.90
2018-03-04T19:06:43.548Z,26.90
2018-03-04T19:09:13.922Z,26.90
2018-03-04T19:11:42.389Z,27.00
2018-03-04T19:14:10.747Z,27.10
2018-03-04T19:16:43.632Z,27.00
2018-03-04T19:19:12.002Z,27.00
2018-03-04T19:21:45.051Z,27.10
2018-03-04T19:24:13.643Z,27.00
2018-03-04T19:26:42.204Z,27.10
2018-03-04T19:29:10.656Z,27.10
2018-03-04T19:31:39.103Z,27.10
2018-03-04T19:34:07.488Z,27.10
2018-03-04T19:36:40.689Z,27.10
2018-03-04T19:39:09.019Z,27.00
2018-03-04T19:41:37.414Z,27.00
2018-03-04T19:44:05.773Z,27.10
2018-03-04T19:46:34.887Z,27.10
2018-03-04T19:49:06.917Z,27.10
2018-03-04T19:51:35.313Z,27.00
2018-03-04T19:54:04.172Z,27.10
2018-03-04T19:56:32.521Z,27.30
2018-03-04T19:59:01.721Z,27.30
2018-03-04T20:01:30.082Z,27.30
2018-03-04T20:03:58.547Z,27.30
2018-03-04T20:06:27.013Z,27.40
2018-03-04T20:08:55.513Z,27.40
2018-03-04T20:11:27.403Z,27.50
2018-03-04T20:13:55.835Z,27.60
2018-03-04T20:16:24.257Z,27.70
2018-03-04T20:18:53.619Z,27.70
2018-03-04T20:21:22.013Z,27.70
2018-03-04T20:23:55.343Z,27.70
2018-03-04T20:26:32.476Z,27.70
2018-03-04T20:29:00.936Z,27.70
2018-03-04T20:31:30.135Z,27.70
2018-03-04T20:33:58.563Z,27.70
2018-03-04T20:36:26.924Z,27.80
2018-03-04T20:38:55.379Z,27.80
2018-03-04T20:41:23.736Z,27.90
2018-03-04T20:43:53.760Z,27.90
2018-03-04T20:46:22.517Z,27.90
2018-03-04T20:48:50.941Z,28.00
2018-03-04T20:51:20.000Z,27.90
2018-03-04T20:53:48.571Z,27.90
2018-03-04T20:56:16.896Z,27.90
2018-03-04T20:58:46.962Z,28.00
2018-03-04T21:01:17.272Z,28.00
2018-03-04T21:03:45.685Z,28.50
2018-03-04T21:06:14.126Z,28.00
2018-03-04T21:08:42.809Z,28.10
2018-03-04T21:11:11.206Z,28.20
2018-03-04T21:13:39.591Z,28.20
2018-03-04T21:16:08.892Z,28.20
2018-03-04T21:18:37.294Z,28.20
2018-03-04T21:21:05.752Z,28.20
2018-03-04T21:23:35.313Z,28.30
2018-03-04T21:26:04.001Z,28.30
2018-03-04T21:28:33.177Z,28.40
2018-03-04T21:31:01.472Z,28.50
2018-03-04T21:33:29.949Z,28.50
2018-03-04T21:35:58.357Z,28.60
2018-03-04T21:38:26.706Z,28.50
2018-03-04T21:40:55.124Z,28.60
2018-03-04T21:43:23.403Z,28.70
2018-03-04T21:45:51.738Z,28.70
2018-03-04T21:48:20.127Z,28.80
2018-03-04T21:50:48.492Z,28.90
2018-03-04T21:53:17.084Z,28.90
2018-03-04T21:55:45.416Z,29.00
2018-03-04T21:58:15.674Z,29.00
2018-03-04T22:00:44.171Z,29.00
2018-03-04T22:03:12.547Z,29.10
2018-03-04T22:05:40.873Z,29.20
2018-03-04T22:08:09.330Z,29.30
2018-03-04T22:10:37.661Z,29.30
2018-03-04T22:13:05.981Z,29.30
2018-03-04T22:15:34.284Z,29.40
2018-03-04T22:18:02.589Z,29.40
2018-03-04T22:20:30.948Z,29.50
2018-03-04T22:22:59.259Z,29.70
2018-03-04T22:25:27.666Z,29.70
2018-03-04T22:27:56.195Z,29.80
2018-03-04T22:30:24.497Z,30.00
2018-03-04T22:32:53.770Z,30.10
2018-03-04T22:35:22.781Z,30.00
2018-03-04T22:37:51.210Z,30.10
2018-03-04T22:40:19.778Z,30.10
2018-03-04T22:42:48.499Z,30.20
2018-03-04T22:45:16.814Z,30.30
2018-03-04T22:47:45.105Z,30.50
2018-03-04T22:50:13.530Z,30.60
2018-03-04T22:52:41.981Z,30.80
2018-03-04T22:55:11.075Z,31.00
2018-03-04T22:57:39.358Z,31.00
2018-03-04T23:00:08.424Z,31.20
2018-03-04T23:02:36.730Z,31.10
2018-03-04T23:05:05.018Z,31.50
2018-03-04T23:07:33.326Z,31.30
2018-03-04T23:10:01.634Z,31.40
2018-03-04T23:12:29.915Z,31.70
2018-03-04T23:14:58.225Z,31.80
2018-03-04T23:17:26.507Z,32.00
2018-03-04T23:19:54.826Z,32.10
2018-03-04T23:22:23.453Z,32.30
2018-03-04T23:24:51.850Z,32.50
2018-03-04T23:27:20.161Z,32.80
2018-03-04T23:29:49.324Z,32.70
2018-03-04T23:32:17.733Z,32.90
2018-03-04T23:34:46.083Z,33.00
2018-03-04T23:37:15.114Z,33.30
2018-03-04T23:39:43.404Z,33.20
2018-03-04T23:42:11.687Z,33.40
2018-03-04T23:44:39.997Z,33.50
2018-03-04T23:47:10.617Z,33.80
2018-03-04T23:49:38.943Z,33.80
2018-03-04T23:52:07.330Z,34.10
2018-03-04T23:54:35.601Z,34.00
2018-03-04T23:57:09.074Z,34.00
2018-03-04T23:59:38.059Z,34.20
